Time;durP1;ratioP1;P1;durP2;ratioP2;P2;SDS_P1;SDS_P2;PMS_P1;PMS_P2;Temp;Humidity;BMP_temperature;BMP_pressure;BME280_temperature;BME280_humidity;BME280_pressure;Samples;Min_cycle;Max_cycle;Signal;HPM_P1;HPM_P2
2022/03/14 00:01:36;;;;;;;21.50;14.37;;;7.00;40.50;;;;;;5074105;28;20458;-51
2022/03/14 00:04:03;;;;;;;22.70;14.57;;;6.90;40.50;;;;;;5074144;28;20438;-51
2022/03/14 00:06:29;;;;;;;26.77;14.60;;;7.20;40.70;;;;;;5074135;28;20471;-51
2022/03/14 00:08:58;;;;;;;22.87;13.87;;;7.00;40.60;;;;;;5073959;28;20437;-51
2022/03/14 00:11:26;;;;;;;21.63;15.50;;;6.70;40.50;;;;;;5074025;28;21090;-51
2022/03/14 00:13:55;;;;;;;26.70;15.40;;;6.90;40.60;;;;;;5073954;28;20963;-51
2022/03/14 00:16:25;;;;;;;22.17;13.93;;;7.00;40.80;;;;;;5073830;28;20533;-51
2022/03/14 00:18:53;;;;;;;24.80;15.80;;;6.20;40.30;;;;;;5073463;28;20479;-51
2022/03/14 00:21:20;;;;;;;24.77;14.40;;;6.90;40.80;;;;;;5073786;28;20469;-51
2022/03/14 00:23:47;;;;;;;22.43;14.40;;;6.80;40.80;;;;;;5073819;28;20473;-51
2022/03/14 00:26:14;;;;;;;21.23;15.07;;;6.60;40.80;;;;;;5073608;28;20434;-51
2022/03/14 00:28:42;;;;;;;22.97;14.20;;;7.00;41.10;;;;;;5073383;28;20439;-52
2022/03/14 00:31:08;;;;;;;19.90;14.40;;;7.20;41.40;;;;;;5073556;28;20516;-52
2022/03/14 00:33:35;;;;;;;25.80;14.93;;;6.10;40.60;;;;;;5073601;28;20436;-51
2022/03/14 00:36:02;;;;;;;32.30;17.10;;;6.80;41.10;;;;;;5073559;28;20959;-51
2022/03/14 00:38:29;;;;;;;25.17;15.30;;;6.80;41.10;;;;;;5073121;28;20471;-51
2022/03/14 00:40:56;;;;;;;22.03;14.00;;;6.50;40.90;;;;;;5073381;28;20833;-50
2022/03/14 00:43:24;;;;;;;25.10;15.20;;;6.90;41.00;;;;;;5073632;28;20881;-51
2022/03/14 00:45:50;;;;;;;23.50;15.50;;;6.90;41.40;;;;;;5073537;28;20435;-51
2022/03/14 00:48:17;;;;;;;26.57;15.87;;;7.10;41.50;;;;;;5073372;28;20784;-51
2022/03/14 00:50:43;;;;;;;25.00;15.63;;;6.40;41.10;;;;;;5073083;28;20455;-51
2022/03/14 00:53:10;;;;;;;24.97;15.40;;;6.70;41.30;;;;;;5073604;28;20455;-51
2022/03/14 00:55:37;;;;;;;27.60;15.70;;;6.50;41.10;;;;;;5073659;28;20445;-51
2022/03/14 00:58:03;;;;;;;22.70;14.53;;;6.70;41.40;;;;;;5073419;28;20464;-51
2022/03/14 01:00:31;;;;;;;27.23;15.03;;;6.70;41.40;;;;;;5072765;28;20458;-51
2022/03/14 01:02:59;;;;;;;20.60;15.13;;;6.00;41.00;;;;;;5073177;28;20438;-50
2022/03/14 01:05:26;;;;;;;25.50;14.77;;;6.40;41.30;;;;;;5073143;28;20435;-51
2022/03/14 01:07:53;;;;;;;23.40;15.63;;;6.50;41.50;;;;;;5072937;28;20457;-51
2022/03/14 01:10:20;;;;;;;21.70;14.63;;;6.30;41.40;;;;;;5072408;28;20431;-50
2022/03/14 01:12:47;;;;;;;20.90;14.33;;;6.60;41.50;;;;;;5072980;28;20410;-51
2022/03/14 01:15:14;;;;;;;23.83;16.03;;;6.30;41.50;;;;;;5072963;28;20522;-51
2022/03/14 01:17:42;;;;;;;25.37;16.10;;;6.30;41.60;;;;;;5072890;28;20430;-51
2022/03/14 01:20:10;;;;;;;23.27;14.90;;;6.50;41.80;;;;;;5072232;28;20483;-50
2022/03/14 01:22:38;;;;;;;21.60;14.07;;;6.50;41.90;;;;;;5072753;28;20497;-51
2022/03/14 01:25:05;;;;;;;25.10;15.50;;;6.40;41.90;;;;;;5072701;28;20430;-51
2022/03/14 01:27:32;;;;;;;29.17;15.30;;;6.30;41.80;;;;;;5072691;28;20433;-50
2022/03/14 01:29:59;;;;;;;22.80;14.20;;;6.30;42.10;;;;;;5072098;28;20426;-50
2022/03/14 01:32:25;;;;;;;29.23;14.70;;;6.20;42.00;;;;;;5072518;28;20457;-51
2022/03/14 01:34:53;;;;;;;26.17;16.10;;;6.20;42.10;;;;;;5072475;28;20445;-51
2022/03/14 01:37:20;;;;;;;25.23;16.27;;;6.20;42.10;;;;;;5072390;28;20430;-51
2022/03/14 01:39:46;;;;;;;24.07;15.53;;;6.20;42.20;;;;;;5072088;28;20843;-50
2022/03/14 01:42:17;;;;;;;19.50;15.20;;;5.80;41.80;;;;;;5072383;28;20432;-50
2022/03/14 01:44:46;;;;;;;23.47;14.40;;;6.60;42.60;;;;;;5072396;28;20485;-51
2022/03/14 01:47:14;;;;;;;25.80;16.10;;;6.10;42.30;;;;;;5072280;28;20529;-51
2022/03/14 01:49:40;;;;;;;23.57;15.33;;;6.30;42.20;;;;;;5071705;28;20941;-51
2022/03/14 01:52:09;;;;;;;22.60;15.10;;;6.10;42.10;;;;;;5071922;28;20958;-51
2022/03/14 01:54:36;;;;;;;23.67;13.83;;;6.70;43.00;;;;;;5071931;28;20532;-51
2022/03/14 01:57:02;;;;;;;23.73;14.50;;;6.10;42.40;;;;;;5072123;28;20541;-51
2022/03/14 01:59:29;;;;;;;21.43;14.17;;;5.90;42.30;;;;;;5070332;28;20977;-51
2022/03/14 02:02:04;;;;;;;21.50;14.50;;;6.10;42.80;;;;;;5071662;28;20572;-50
2022/03/14 02:04:31;;;;;;;21.30;15.00;;;6.00;42.70;;;;;;5072109;28;20492;-51
2022/03/14 02:06:59;;;;;;;23.00;14.30;;;5.90;42.70;;;;;;5072453;28;21001;-51
2022/03/14 02:09:27;;;;;;;22.27;14.80;;;6.10;42.90;;;;;;5071922;28;20438;-51
2022/03/14 02:12:06;;;;;;;20.97;14.17;;;6.00;43.00;;;;;;5070630;28;20231;-51
2022/03/14 02:14:39;;;;;;;27.87;15.50;;;6.10;43.00;;;;;;5072054;28;20470;-51
2022/03/14 02:17:07;;;;;;;22.63;15.00;;;5.90;43.00;;;;;;5072247;28;20479;-51
2022/03/14 02:19:34;;;;;;;24.03;15.10;;;5.70;43.00;;;;;;5072255;28;20949;-50
2022/03/14 02:22:02;;;;;;;24.87;15.80;;;6.00;43.20;;;;;;5072370;28;21012;-51
2022/03/14 02:24:29;;;;;;;22.93;15.33;;;5.90;43.20;;;;;;5072416;28;21033;-50
2022/03/14 02:26:57;;;;;;;23.83;14.13;;;5.90;43.20;;;;;;5071914;28;20441;-51
2022/03/14 02:29:24;;;;;;;25.10;14.35;;;5.80;43.10;;;;;;5071645;28;20195;-52
2022/03/14 02:31:50;;;;;;;24.67;14.33;;;5.80;43.10;;;;;;5071895;28;20270;-50
2022/03/14 02:34:17;;;;;;;20.63;13.17;;;5.80;43.20;;;;;;5071618;28;20997;-51
2022/03/14 02:36:44;;;;;;;24.57;13.30;;;5.40;42.90;;;;;;5071651;28;20440;-50
2022/03/14 02:39:12;;;;;;;24.20;16.93;;;5.70;43.20;;;;;;5071401;28;20562;-51
2022/03/14 02:41:40;;;;;;;22.45;14.40;;;5.90;43.40;;;;;;5071628;28;20449;-50
2022/03/14 02:44:08;;;;;;;19.93;14.77;;;5.90;43.40;;;;;;5071710;28;20207;-51
2022/03/14 02:46:37;;;;;;;23.40;14.27;;;5.70;43.30;;;;;;5071620;28;20438;-51
2022/03/14 02:49:04;;;;;;;25.43;16.07;;;5.80;43.40;;;;;;5071075;28;20440;-51
2022/03/14 02:51:30;;;;;;;26.60;15.47;;;5.40;43.20;;;;;;5071298;28;20450;-50
2022/03/14 02:53:57;;;;;;;23.90;14.82;;;5.80;43.40;;;;;;5071513;28;20442;-50
2022/03/14 02:56:25;;;;;;;22.47;14.97;;;5.60;43.10;;;;;;5071442;28;20207;-51
2022/03/14 02:58:54;;;;;;;20.97;14.60;;;5.90;43.70;;;;;;5071044;28;20899;-50
2022/03/14 03:01:21;;;;;;;23.70;14.53;;;5.60;43.40;;;;;;5071079;28;20783;-50
2022/03/14 03:03:50;;;;;;;27.00;15.27;;;5.80;43.20;;;;;;5071265;28;20434;-50
2022/03/14 03:06:22;;;;;;;27.13;14.83;;;5.50;43.50;;;;;;5074442;28;20196;-51
2022/03/14 03:08:49;;;;;;;24.37;14.67;;;5.00;43.70;;;;;;5074898;28;20935;-51
2022/03/14 03:11:16;;;;;;;25.63;15.25;;;5.70;43.50;;;;;;5075216;28;20465;-51
2022/03/14 03:13:46;;;;;;;22.27;15.07;;;5.00;43.20;;;;;;5075309;28;20205;-50
2022/03/14 03:16:16;;;;;;;23.60;15.40;;;5.50;43.60;;;;;;5075146;28;20196;-51
2022/03/14 03:18:44;;;;;;;25.92;15.40;;;5.60;43.70;;;;;;5074613;28;20438;-51
2022/03/14 03:21:11;;;;;;;20.48;14.95;;;5.50;43.60;;;;;;5074939;28;20222;-51
2022/03/14 03:23:37;;;;;;;21.73;14.80;;;6.00;44.00;;;;;;5075108;28;20199;-51
2022/03/14 03:26:05;;;;;;;27.03;15.67;;;5.50;43.70;;;;;;5075008;28;20435;-51
2022/03/14 03:28:35;;;;;;;24.23;15.20;;;5.30;43.60;;;;;;5074696;28;20800;-51
2022/03/14 03:31:05;;;;;;;23.93;15.47;;;4.80;43.20;;;;;;5075000;28;20219;-51
2022/03/14 03:33:32;;;;;;;20.27;13.82;;;5.40;43.70;;;;;;5074830;28;20791;-50
2022/03/14 03:36:00;;;;;;;25.10;14.43;;;5.80;43.90;;;;;;5074788;28;20221;-51
2022/03/14 03:38:27;;;;;;;25.08;14.80;;;5.30;43.60;;;;;;5074448;28;20441;-50
2022/03/14 03:40:54;;;;;;;25.93;15.47;;;5.50;43.60;;;;;;5074584;28;20240;-50
2022/03/14 03:43:21;;;;;;;25.77;13.93;;;5.50;43.70;;;;;;5074880;28;20451;-51
2022/03/14 03:45:47;;;;;;;22.35;13.75;;;5.80;44.00;;;;;;5074704;28;20196;-51
2022/03/14 03:48:16;;;;;;;24.83;15.77;;;5.30;43.80;;;;;;5074640;28;20192;-51
2022/03/14 03:50:43;;;;;;;25.45;14.85;;;4.70;43.30;;;;;;5074115;28;20225;-51
2022/03/14 03:53:09;;;;;;;24.63;14.38;;;4.70;43.40;;;;;;5074709;28;20569;-51
2022/03/14 03:55:36;;;;;;;22.80;14.83;;;5.40;44.00;;;;;;5073422;28;20214;-50
2022/03/14 03:58:03;;;;;;;21.45;14.75;;;4.80;43.70;;;;;;5074503;28;20445;-50
2022/03/14 04:00:30;;;;;;;20.67;14.17;;;5.20;43.90;;;;;;5074239;28;20226;-51
2022/03/14 04:02:57;;;;;;;23.88;14.55;;;5.60;44.20;;;;;;5074176;28;20433;-50
2022/03/14 04:05:25;;;;;;;26.00;15.13;;;5.50;44.20;;;;;;5074596;28;20563;-51
2022/03/14 04:07:54;;;;;;;22.23;13.27;;;5.20;43.90;;;;;;5074141;28;20195;-50
2022/03/14 04:10:21;;;;;;;26.27;13.45;;;5.20;43.60;;;;;;5073642;28;20195;-50
2022/03/14 04:12:48;;;;;;;19.57;14.50;;;5.40;44.70;;;;;;5074144;28;20199;-51
2022/03/14 04:15:15;;;;;;;21.85;14.65;;;5.30;44.20;;;;;;5073861;28;20465;-51
2022/03/14 04:17:42;;;;;;;23.58;14.73;;;5.50;44.40;;;;;;5073716;28;20195;-50
2022/03/14 04:20:11;;;;;;;23.10;14.02;;;5.10;43.50;;;;;;5072118;28;20223;-51
2022/03/14 04:22:40;;;;;;;21.98;14.52;;;5.30;44.10;;;;;;5074036;28;20245;-50
2022/03/14 04:25:10;;;;;;;22.83;14.50;;;5.20;44.20;;;;;;5074221;28;20207;-50
2022/03/14 04:27:37;;;;;;;21.13;14.80;;;5.10;44.20;;;;;;5073875;28;20574;-50
2022/03/14 04:30:04;;;;;;;23.48;15.15;;;5.20;44.20;;;;;;5073352;28;20434;-51
2022/03/14 04:32:31;;;;;;;25.30;15.50;;;5.00;44.20;;;;;;5073596;28;20215;-51
2022/03/14 04:34:57;;;;;;;27.38;15.80;;;5.20;44.20;;;;;;5073637;28;20203;-51
2022/03/14 04:37:24;;;;;;;29.45;15.93;;;5.00;44.20;;;;;;5073627;28;20202;-50
2022/03/14 04:39:52;;;;;;;23.95;15.68;;;4.90;43.80;;;;;;5073129;28;20245;-51
2022/03/14 04:42:21;;;;;;;29.60;15.70;;;5.00;44.40;;;;;;5073767;28;20335;-51
2022/03/14 04:44:49;;;;;;;29.23;16.33;;;5.00;44.40;;;;;;5073474;28;20199;-51
2022/03/14 04:47:17;;;;;;;25.98;15.68;;;5.50;44.90;;;;;;5073288;28;20225;-50
2022/03/14 04:49:43;;;;;;;25.80;15.85;;;5.20;44.60;;;;;;5073147;28;20261;-51
2022/03/14 04:52:10;;;;;;;29.23;15.38;;;4.90;44.60;;;;;;5073102;28;20576;-50
2022/03/14 04:54:36;;;;;;;22.42;14.85;;;5.00;44.80;;;;;;5073161;28;20340;-50
2022/03/14 04:57:05;;;;;;;24.00;14.55;;;4.90;44.80;;;;;;5073262;28;20191;-51
2022/03/14 04:59:31;;;;;;;28.27;15.60;;;5.00;44.80;;;;;;5072855;28;20219;-51
2022/03/14 05:01:58;;;;;;;28.48;15.32;;;4.40;44.10;;;;;;5073087;28;20725;-51
2022/03/14 05:04:25;;;;;;;23.85;15.70;;;5.30;45.30;;;;;;5073220;28;20243;-51
2022/03/14 05:06:51;;;;;;;25.65;15.40;;;4.80;45.00;;;;;;5073204;28;20206;-50
2022/03/14 05:09:18;;;;;;;33.50;16.95;;;4.90;44.70;;;;;;5072492;28;20740;-51
2022/03/14 05:11:45;;;;;;;25.80;15.73;;;4.70;45.00;;;;;;5095425;22;20686;-44
2022/03/14 05:14:14;;;;;;;27.38;15.88;;;4.80;45.20;;;;;;5073542;28;20211;-43
2022/03/14 05:16:41;;;;;;;23.08;16.33;;;4.60;45.10;;;;;;5073724;28;20195;-45
2022/03/14 05:19:07;;;;;;;24.17;15.02;;;4.90;45.40;;;;;;5072651;28;20199;-42
2022/03/14 05:21:36;;;;;;;21.55;15.48;;;4.50;45.20;;;;;;5072739;28;20230;-45
2022/03/14 05:24:02;;;;;;;32.92;17.13;;;5.10;45.70;;;;;;5072664;28;20565;-45
2022/03/14 05:26:29;;;;;;;26.17;17.38;;;4.90;45.50;;;;;;5072636;28;20195;-45
2022/03/14 05:28:56;;;;;;;31.65;16.73;;;5.40;46.10;;;;;;5070225;28;20289;-44
2022/03/14 05:31:23;;;;;;;27.95;15.75;;;4.70;45.70;;;;;;5072529;28;20211;-41
2022/03/14 05:33:50;;;;;;;26.75;15.45;;;4.20;45.40;;;;;;5072472;28;20659;-42
2022/03/14 05:36:17;;;;;;;29.77;16.30;;;4.70;45.80;;;;;;5072735;28;20195;-42
2022/03/14 05:38:44;;;;;;;30.17;17.75;;;4.60;45.70;;;;;;5072136;28;20210;-46
2022/03/14 05:41:12;;;;;;;28.20;16.65;;;4.70;45.60;;;;;;5072339;28;20219;-43
2022/03/14 05:43:39;;;;;;;30.42;18.10;;;5.00;45.90;;;;;;5072064;28;20199;-43
2022/03/14 05:46:06;;;;;;;29.35;16.52;;;4.50;45.60;;;;;;5072418;28;20586;-44
2022/03/14 05:48:35;;;;;;;26.80;16.35;;;4.50;45.90;;;;;;5071776;28;20605;-44
2022/03/14 05:51:02;;;;;;;28.92;16.65;;;4.30;45.70;;;;;;5072103;28;20257;-45
2022/03/14 05:53:31;;;;;;;23.70;15.38;;;4.60;46.00;;;;;;5071994;28;20210;-44
2022/03/14 05:55:58;;;;;;;25.98;15.68;;;4.80;46.30;;;;;;5073152;28;20194;-45
2022/03/14 05:58:25;;;;;;;33.20;17.38;;;4.60;45.80;;;;;;5071868;28;20195;-44
2022/03/14 06:00:52;;;;;;;31.67;17.77;;;4.90;46.30;;;;;;5072651;28;20621;-44
2022/03/14 06:03:20;;;;;;;23.17;15.80;;;4.60;46.10;;;;;;5072705;28;20191;-44
2022/03/14 06:05:49;;;;;;;31.38;17.00;;;5.40;46.60;;;;;;5072266;28;20253;-43
2022/03/14 06:08:15;;;;;;;28.52;17.10;;;4.70;46.20;;;;;;5072264;28;20199;-42
2022/03/14 06:10:45;;;;;;;31.88;17.67;;;4.50;46.10;;;;;;5071765;28;20273;-42
2022/03/14 06:13:13;;;;;;;25.67;16.17;;;4.90;46.30;;;;;;5072404;28;20699;-45
2022/03/14 06:15:41;;;;;;;33.75;16.23;;;4.20;45.70;;;;;;5072084;28;20194;-44
2022/03/14 06:18:07;;;;;;;31.05;16.98;;;4.80;46.20;;;;;;5071387;28;20656;-43
2022/03/14 06:20:34;;;;;;;35.88;18.98;;;5.50;46.60;;;;;;5071229;28;20255;-42
2022/03/14 06:23:02;;;;;;;27.30;17.05;;;4.80;46.10;;;;;;5071871;28;20191;-43
2022/03/14 06:25:29;;;;;;;30.70;17.65;;;5.00;46.10;;;;;;5071732;28;20195;-44
2022/03/14 06:27:56;;;;;;;41.13;18.05;;;5.40;46.30;;;;;;5071266;28;20195;-42
2022/03/14 06:30:22;;;;;;;31.83;16.38;;;5.30;46.20;;;;;;5071093;28;20199;-42
2022/03/14 06:32:50;;;;;;;30.80;17.63;;;5.40;46.20;;;;;;5071113;28;20250;-43
2022/03/14 06:35:17;;;;;;;28.45;18.02;;;5.10;46.40;;;;;;5071454;28;20627;-44
2022/03/14 06:37:45;;;;;;;27.65;17.08;;;5.30;45.90;;;;;;5070703;28;20199;-43
2022/03/14 06:40:14;;;;;;;29.80;17.58;;;5.60;46.00;;;;;;5070277;28;20294;-43
2022/03/14 06:42:41;;;;;;;29.50;18.85;;;4.80;45.40;;;;;;5071336;28;20211;-43
2022/03/14 06:45:09;;;;;;;35.08;19.75;;;5.60;45.70;;;;;;5071508;28;20202;-45
2022/03/14 06:47:38;;;;;;;28.30;16.80;;;5.60;45.60;;;;;;5071616;28;20207;-42
2022/03/14 06:50:06;;;;;;;37.03;17.87;;;5.80;45.50;;;;;;5071793;28;20267;-43
2022/03/14 06:52:34;;;;;;;28.70;16.52;;;5.50;45.40;;;;;;5071660;28;20465;-44
2022/03/14 06:55:05;;;;;;;26.45;15.57;;;5.80;45.30;;;;;;5072601;28;20690;-44
2022/03/14 06:57:33;;;;;;;30.98;17.35;;;5.90;45.40;;;;;;5071888;28;20195;-44
2022/03/14 07:00:00;;;;;;;26.93;16.47;;;5.70;45.20;;;;;;5070919;28;20292;-43
2022/03/14 07:02:27;;;;;;;33.45;17.55;;;5.90;45.20;;;;;;5071782;28;20449;-44
2022/03/14 07:04:55;;;;;;;24.65;16.90;;;5.40;44.90;;;;;;5072152;28;20199;-44
2022/03/14 07:07:21;;;;;;;25.63;17.50;;;5.70;44.80;;;;;;5071031;28;20278;-45
2022/03/14 07:09:48;;;;;;;24.50;16.10;;;6.10;44.60;;;;;;5072160;28;20444;-44
2022/03/14 07:12:15;;;;;;;21.95;15.95;;;6.30;45.10;;;;;;5071713;28;20475;-45
2022/03/14 07:14:43;;;;;;;23.80;16.10;;;6.00;44.90;;;;;;5071451;28;20191;-43
2022/03/14 07:17:09;;;;;;;32.22;17.90;;;6.10;44.80;;;;;;5071364;28;20433;-43
2022/03/14 07:19:36;;;;;;;28.10;17.15;;;5.60;44.40;;;;;;5071306;28;20202;-46
2022/03/14 07:22:03;;;;;;;25.67;16.50;;;5.40;44.00;;;;;;5071958;28;20311;-43
2022/03/14 07:24:31;;;;;;;25.30;14.75;;;6.10;44.20;;;;;;5071786;28;20425;-42
2022/03/14 07:26:57;;;;;;;26.30;15.90;;;6.10;44.10;;;;;;5071741;28;20191;-44
2022/03/14 07:29:24;;;;;;;26.33;15.80;;;5.90;44.00;;;;;;5071012;28;20200;-46
2022/03/14 07:31:52;;;;;;;26.07;17.07;;;6.20;44.20;;;;;;5071341;28;20932;-44
2022/03/14 07:34:19;;;;;;;25.87;16.33;;;6.20;44.00;;;;;;5071370;28;20444;-43
2022/03/14 07:36:45;;;;;;;24.80;15.73;;;6.10;43.80;;;;;;5071253;28;20524;-43
2022/03/14 07:39:12;;;;;;;23.23;15.07;;;6.30;44.00;;;;;;5071800;28;20429;-42
2022/03/14 07:41:39;;;;;;;24.50;16.02;;;6.40;43.90;;;;;;5071428;28;20668;-44
2022/03/14 07:44:06;;;;;;;24.33;15.33;;;6.30;43.90;;;;;;5071739;28;20630;-42
2022/03/14 07:46:34;;;;;;;28.20;15.97;;;6.40;44.10;;;;;;5071608;28;20425;-44
2022/03/14 07:49:03;;;;;;;25.77;17.27;;;6.30;43.90;;;;;;5071267;28;20430;-44
2022/03/14 07:51:30;;;;;;;26.13;16.03;;;6.50;44.00;;;;;;5072868;28;20222;-43
2022/03/14 07:53:56;;;;;;;24.17;14.55;;;6.50;44.00;;;;;;5074765;28;20459;-43
2022/03/14 07:56:23;;;;;;;23.75;16.35;;;6.50;44.00;;;;;;5074864;28;20195;-44
2022/03/14 07:58:50;;;;;;;29.63;17.35;;;6.50;44.00;;;;;;5075440;28;20193;-42
2022/03/14 08:01:17;;;;;;;24.00;14.93;;;6.50;43.80;;;;;;5075427;28;20228;-43
2022/03/14 08:03:45;;;;;;;22.50;15.47;;;6.70;44.20;;;;;;5075849;28;20199;-42
2022/03/14 08:06:17;;;;;;;29.30;16.13;;;6.70;44.10;;;;;;5073583;28;20443;-42
2022/03/14 08:08:44;;;;;;;23.17;14.70;;;6.40;43.90;;;;;;5074743;28;20526;-42
2022/03/14 08:11:12;;;;;;;24.83;15.60;;;6.60;43.70;;;;;;5075392;28;20466;-42
2022/03/14 08:13:39;;;;;;;21.20;14.40;;;7.00;44.10;;;;;;5074491;28;20410;-43
2022/03/14 08:16:06;;;;;;;27.13;15.67;;;6.60;43.90;;;;;;5074437;28;20525;-44
2022/03/14 08:18:32;;;;;;;26.00;14.87;;;6.70;44.00;;;;;;5073610;28;20437;-44
2022/03/14 08:20:59;;;;;;;25.77;14.90;;;6.30;43.40;;;;;;5074119;28;20489;-43
2022/03/14 08:23:27;;;;;;;20.10;13.87;;;6.90;43.50;;;;;;5072658;28;20450;-44
2022/03/14 08:25:54;;;;;;;25.07;15.00;;;6.40;42.90;;;;;;5072450;28;20455;-46
2022/03/14 08:28:22;;;;;;;23.43;12.90;;;6.60;43.00;;;;;;5074162;28;20838;-44
2022/03/14 08:30:49;;;;;;;24.33;15.13;;;6.50;42.80;;;;;;5074098;28;20427;-45
2022/03/14 08:33:17;;;;;;;24.37;14.50;;;7.40;43.50;;;;;;5074357;28;20422;-43
2022/03/14 08:35:45;;;;;;;24.50;13.73;;;7.40;43.40;;;;;;5073646;28;20477;-44
2022/03/14 08:38:13;;;;;;;22.40;15.87;;;7.30;43.30;;;;;;5074423;28;20469;-42
2022/03/14 08:40:41;;;;;;;19.13;13.37;;;7.10;43.00;;;;;;5073050;28;20485;-42
2022/03/14 08:43:09;;;;;;;17.50;13.27;;;7.30;42.80;;;;;;5073807;28;20809;-45
2022/03/14 08:45:36;;;;;;;18.83;12.60;;;7.30;43.00;;;;;;5074262;28;20511;-42
2022/03/14 08:48:05;;;;;;;26.63;13.93;;;7.60;42.90;;;;;;5074181;28;20508;-43
2022/03/14 08:50:33;;;;;;;20.50;13.03;;;7.80;42.90;;;;;;5072591;28;21022;-43
2022/03/14 08:52:59;;;;;;;26.20;13.47;;;7.10;42.60;;;;;;5073495;28;20438;-43
2022/03/14 08:55:26;;;;;;;22.20;14.40;;;8.10;42.70;;;;;;5073446;28;20938;-47
2022/03/14 08:57:54;;;;;;;15.43;11.20;;;7.20;42.00;;;;;;5073573;28;20522;-44
2022/03/14 09:00:27;;;;;;;19.60;14.53;;;7.50;41.80;;;;;;5073140;28;20435;-43
2022/03/14 09:02:54;;;;;;;18.63;12.77;;;7.90;42.00;;;;;;5072159;28;20508;-44
2022/03/14 09:05:21;;;;;;;17.20;12.67;;;7.20;41.40;;;;;;5072638;28;20460;-44
2022/03/14 09:07:49;;;;;;;17.97;11.67;;;7.80;41.70;;;;;;5074094;28;20441;-43
2022/03/14 09:10:17;;;;;;;24.33;13.30;;;8.00;41.70;;;;;;5072838;28;20535;-44
2022/03/14 09:12:44;;;;;;;17.60;12.20;;;7.80;41.30;;;;;;5073236;28;20466;-43
2022/03/14 09:15:13;;;;;;;16.87;12.20;;;8.10;41.40;;;;;;5073329;28;20527;-43
2022/03/14 09:17:48;;;;;;;16.23;12.57;;;8.40;41.00;;;;;;5072889;28;20442;-43
2022/03/14 09:20:15;;;;;;;16.47;10.80;;;8.20;40.50;;;;;;5072745;28;20500;-42
2022/03/14 09:22:45;;;;;;;17.70;11.90;;;8.50;40.50;;;;;;5072950;28;20520;-42
2022/03/14 09:25:13;;;;;;;16.67;11.17;;;8.30;40.50;;;;;;5073611;28;20456;-43
2022/03/14 09:27:40;;;;;;;15.80;11.20;;;8.30;40.20;;;;;;5073071;28;20444;-44
2022/03/14 09:30:09;;;;;;;16.57;11.40;;;8.00;40.10;;;;;;5072515;28;20447;-42
2022/03/14 09:32:37;;;;;;;16.40;11.40;;;8.40;40.30;;;;;;5072919;28;20472;-43
2022/03/14 09:35:06;;;;;;;20.73;12.37;;;7.90;39.80;;;;;;5073068;28;20493;-43
2022/03/14 09:37:35;;;;;;;17.87;11.47;;;8.50;40.00;;;;;;5072577;28;20411;-44
2022/03/14 09:40:05;;;;;;;22.70;12.93;;;8.50;39.90;;;;;;5072454;28;20961;-44
2022/03/14 09:42:36;;;;;;;16.57;11.73;;;8.40;40.00;;;;;;5070411;28;21015;-43
2022/03/14 09:45:04;;;;;;;19.50;11.63;;;8.70;40.20;;;;;;5072012;28;20451;-43
2022/03/14 09:47:35;;;;;;;18.50;11.70;;;9.10;40.60;;;;;;5072717;28;20944;-42
2022/03/14 09:50:08;;;;;;;15.13;11.47;;;8.50;40.60;;;;;;5072449;28;20437;-43
2022/03/14 09:52:37;;;;;;;14.53;11.27;;;8.70;40.70;;;;;;5072228;28;20453;-42
2022/03/14 09:55:06;;;;;;;15.80;12.03;;;8.60;40.30;;;;;;5072201;28;20440;-43
2022/03/14 09:57:34;;;;;;;14.97;10.20;;;8.70;40.20;;;;;;5072673;28;20426;-44
2022/03/14 10:00:00;;;;;;;20.50;12.40;;;8.30;39.60;;;;;;5073121;28;20444;-45
2022/03/14 10:02:28;;;;;;;16.57;11.77;;;8.80;40.50;;;;;;5071704;28;21007;-44
2022/03/14 10:04:55;;;;;;;15.70;11.40;;;9.00;40.10;;;;;;5073059;28;20437;-43
2022/03/14 10:07:23;;;;;;;11.93;10.37;;;9.40;40.40;;;;;;5072252;28;20918;-43
2022/03/14 10:09:51;;;;;;;14.63;11.40;;;9.30;40.30;;;;;;5072023;28;20433;-42
2022/03/14 10:12:18;;;;;;;16.67;10.67;;;9.10;40.00;;;;;;5072476;28;20462;-44
2022/03/14 10:14:46;;;;;;;17.50;10.87;;;8.90;39.30;;;;;;5071525;28;20444;-43
2022/03/14 10:17:13;;;;;;;16.77;11.33;;;9.10;39.60;;;;;;5072074;28;20549;-45
2022/03/14 10:19:39;;;;;;;14.87;11.20;;;9.30;39.80;;;;;;5071798;28;20866;-43
2022/03/14 10:22:14;;;;;;;15.83;11.23;;;9.60;39.90;;;;;;5071972;28;20509;-43
2022/03/14 10:24:43;;;;;;;15.07;11.50;;;9.40;39.90;;;;;;5072468;28;20845;-45
2022/03/14 10:27:11;;;;;;;14.50;10.73;;;9.90;40.20;;;;;;5072249;28;20445;-44
2022/03/14 10:29:38;;;;;;;19.80;11.40;;;9.50;39.90;;;;;;5071421;28;20428;-44
2022/03/14 10:32:23;;;;;;;16.43;10.93;;;9.90;40.00;;;;;;5071656;28;20461;-45
2022/03/14 10:34:53;;;;;;;16.00;10.87;;;9.70;39.40;;;;;;5071890;28;20942;-44
2022/03/14 10:37:20;;;;;;;13.80;10.47;;;9.60;39.00;;;;;;5071432;28;21006;-44
2022/03/14 10:39:48;;;;;;;13.23;9.87;;;9.80;39.00;;;;;;5071106;28;20429;-43
2022/03/14 10:42:15;;;;;;;16.93;12.20;;;10.10;38.40;;;;;;5070947;28;20993;-43
2022/03/14 10:44:43;;;;;;;14.10;11.30;;;10.30;38.40;;;;;;5071443;28;20463;-41
2022/03/14 10:47:13;;;;;;;19.27;10.93;;;9.80;39.00;;;;;;5071385;28;20430;-43
2022/03/14 10:49:43;;;;;;;12.43;11.07;;;10.30;38.20;;;;;;5070972;28;20433;-44
2022/03/14 10:52:13;;;;;;;13.83;10.57;;;10.00;37.80;;;;;;5071501;28;20542;-45
2022/03/14 10:54:41;;;;;;;16.37;10.50;;;10.30;38.00;;;;;;5071723;28;20505;-43
2022/03/14 10:57:11;;;;;;;21.00;11.13;;;10.20;37.70;;;;;;5071407;28;20477;-44
2022/03/14 10:59:43;;;;;;;14.50;10.60;;;10.00;37.70;;;;;;5070721;28;20805;-46
2022/03/14 11:02:11;;;;;;;17.50;10.33;;;10.40;38.80;;;;;;5069149;28;20477;-42
2022/03/14 11:04:43;;;;;;;14.97;11.13;;;10.30;38.10;;;;;;5069423;28;20510;-45
2022/03/14 11:07:10;;;;;;;12.97;10.43;;;10.60;38.30;;;;;;5069617;28;20865;-45
2022/03/14 11:09:41;;;;;;;14.67;10.90;;;10.20;37.80;;;;;;5069184;28;20495;-43
2022/03/14 11:12:12;;;;;;;15.23;11.13;;;9.90;38.70;;;;;;5083566;22;20497;-52
2022/03/14 11:14:39;;;;;;;17.13;11.10;;;10.50;38.20;;;;;;5069445;28;20504;-50
2022/03/14 11:17:15;;;;;;;14.73;10.63;;;10.40;38.40;;;;;;5070342;28;20442;-50
2022/03/14 11:19:42;;;;;;;17.77;11.53;;;10.50;38.40;;;;;;5070726;28;20444;-51
2022/03/14 11:22:11;;;;;;;14.90;11.00;;;10.80;38.60;;;;;;5071213;28;20477;-51
2022/03/14 11:24:41;;;;;;;14.40;11.97;;;10.50;38.30;;;;;;5070690;28;20437;-50
2022/03/14 11:27:11;;;;;;;13.40;11.30;;;10.40;37.90;;;;;;5073588;28;20450;-50
2022/03/14 11:29:39;;;;;;;13.40;11.00;;;10.70;37.90;;;;;;5074549;28;20780;-50
2022/03/14 11:32:07;;;;;;;14.83;11.60;;;10.70;38.10;;;;;;5074478;28;20450;-51
2022/03/14 11:34:35;;;;;;;15.70;11.77;;;10.80;38.00;;;;;;5074759;28;20426;-50
2022/03/14 11:37:03;;;;;;;15.07;11.80;;;10.90;38.40;;;;;;5074470;28;20437;-50
2022/03/14 11:39:31;;;;;;;15.20;10.33;;;10.70;38.00;;;;;;5073953;28;20425;-52
2022/03/14 11:41:59;;;;;;;16.67;10.97;;;11.00;38.30;;;;;;5074637;28;20813;-52
2022/03/14 11:44:28;;;;;;;12.97;10.90;;;10.90;38.10;;;;;;5074342;28;20437;-50
2022/03/14 11:46:55;;;;;;;16.00;11.80;;;11.00;38.00;;;;;;5074366;28;20436;-50
2022/03/14 11:49:25;;;;;;;17.77;11.63;;;11.30;38.30;;;;;;5074226;28;20453;-50
2022/03/14 11:51:51;;;;;;;12.00;10.60;;;11.20;38.40;;;;;;5073464;28;20462;-51
2022/03/14 11:54:18;;;;;;;13.43;10.60;;;11.10;37.70;;;;;;5074261;28;20437;-50
2022/03/14 11:56:53;;;;;;;16.13;10.70;;;11.40;38.10;;;;;;5073691;28;20437;-51
2022/03/14 11:59:28;;;;;;;12.53;10.30;;;11.30;37.90;;;;;;5073741;28;20437;-51
2022/03/14 12:01:58;;;;;;;13.07;10.77;;;11.50;37.70;;;;;;5073627;28;20478;-50
2022/03/14 12:04:29;;;;;;;14.30;9.83;;;12.10;37.40;;;;;;5073742;28;20468;-50
2022/03/14 12:07:07;;;;;;;12.23;10.70;;;12.30;37.40;;;;;;5073763;28;20431;-50
2022/03/14 12:09:48;;;;;;;16.33;10.63;;;11.90;36.90;;;;;;5073343;28;20805;-50
2022/03/14 12:12:29;;;;;;;11.50;10.30;;;12.30;36.80;;;;;;5073535;28;20808;-51
2022/03/14 12:14:59;;;;;;;12.23;10.97;;;13.00;36.60;;;;;;5074229;28;20464;-51
2022/03/14 12:17:27;;;;;;;15.07;10.77;;;12.20;36.30;;;;;;5073562;28;21043;-51
2022/03/14 12:19:57;;;;;;;16.10;9.87;;;13.10;36.70;;;;;;5073312;28;20439;-51
2022/03/14 12:22:36;;;;;;;13.17;10.50;;;13.00;36.30;;;;;;5073697;28;20510;-52
2022/03/14 12:25:04;;;;;;;14.10;10.60;;;13.20;36.20;;;;;;5073955;28;20427;-51
2022/03/14 12:27:34;;;;;;;14.23;9.83;;;12.60;36.40;;;;;;5073467;28;20450;-51
2022/03/14 12:30:06;;;;;;;13.43;10.73;;;13.30;36.30;;;;;;5073506;28;20793;-51
2022/03/14 12:32:36;;;;;;;15.60;11.90;;;13.00;36.00;;;;;;5073423;28;20971;-51
2022/03/14 12:35:09;;;;;;;13.50;10.50;;;13.30;36.70;;;;;;5073671;28;20426;-51
2022/03/14 12:37:49;;;;;;;12.27;10.90;;;13.20;36.20;;;;;;5072741;28;20469;-51
2022/03/14 12:40:41;;;;;;;13.17;11.07;;;13.50;36.30;;;;;;5073054;28;20428;-52